Bellaire, Michigan
Current Conditions -  °F | °C
As of 6:17 PM on Thursday 20 Nov 2014 (Local Time) from KACB Reporting Station
Light Snow Light Snow  
Wind Chill: 20°   Ceiling: 1300
Heat Index: 20°   Visibility: 2.5mi
Dew Point: 15°   Wind: 0mph
Humidity: 82%   Direction: NA
Pressure: 29.98"   Gusts: NA
Location:  44.98°N, 85.21°W
Report Text: KACB 202317Z AUTO 00000KT 2 1/2SM -SN BKN013 OVC019 M07/M09 A2998 RMK AO2 T10661092
Loading
Personal Weather Stations






























Interactive Weather Map New forecast layout! Learn more

10-Day Weather Forecast

Advertisements
Track Severe Weather on mobile